Tiempo atmosférico en la estación meteorológica de Ainsa, Huesca (610 m.)



Fecha
DESCASC
Temp. máxima en grados centígrados (hora)
DESCASC
Temp. mínima en grados centígrados (hora)
DESCASC
Temp. media en grados centígrados
DESCASC
Racha de viento máxima en m/sg (hora)
DESCASC
Velocidad máxima media en intervalos de 10 minutos(hora)
DESCASC
Precipitaciones diarias en mm
DESCASC
Precipitaciones de 00:00 a 06:00 en mm
DESCASC
Precipitaciones de 06:00 a 12:00 en mm
DESCASC
Precipitaciones de 12:00 a 18:00 en mm
DESCASC
Precipitaciones de 18:00 a 24:00 en mm
DESCASC
18-04-2019 18.2 (15:50) 7.9 (07:30) 13.1 6.11 (15:00) 3.89 (15:00) 0 0 0 0 0
17-04-2019 21.2 (18:00) 7.5 (07:30) 14.4 5.28 (20:30) 3.89 (20:30) 0 0 0 0 0
16-04-2019 18.4 (15:30) 8.7 (00:00) 13.5 8.33 (00:10) 6.11 (00:10) 0.4 0.4 0 0 0
15-04-2019 20.8 (17:20) 7.4 (00:00) 14.1 13.06 (21:20) 6.39 (21:20) 10.4 0 0 0 10.4
14-04-2019 23.2 (14:50) 4.3 (00:00) 13.8 11.39 (17:50) 5.28 (18:40) 0 0 0 0 0
13-04-2019 21.8 (16:50) 0.9 (00:00) 11.3 9.17 (17:00) 6.11 (17:00) 0 0 0 0 0
12-04-2019 20 (15:20) 4.7 (00:00) 12.3 16.94 (21:10) 9.72 (20:10) 0 0 0 0 0
11-04-2019 17.1 (14:30) 4.7 (00:00) 10.9 11.11 (07:20) 8.06 (07:20) 0 0 0 0 0
10-04-2019 18.4 (15:20) 3 (00:00) 10.7 12.78 (17:40) 5.83 (17:40) 0 0 0 0 0
09-04-2019 18.4 (16:50) 4.4 (00:00) 11.4 12.78 (20:50) 7.78 (14:20) 0 0 0 0 0
08-04-2019 16.9 (17:50) 3.6 (00:00) 10.2 8.89 (18:20) 6.11 (18:20) 0 0 0 0 0
07-04-2019 15.7 (15:30) 0.8 (00:00) 8.2 8.61 (16:10) 5.28 (16:00) 0 0 0 0 0
06-04-2019 9.8 (15:00) 0 (00:00) 4.9 11.11 (17:50) 5.56 (17:50) 29.4 15.4 6.2 4.2 3.6
05-04-2019 10.8 (15:30) 3.4 (00:00) 7.1 5.28 (20:00) 3.89 (20:00) 16.8 0 0.8 1 15
04-04-2019 14.6 (17:00) -1.7 (-00:0) 6.5 11.39 (04:00) 6.11 (02:40) 0 0 0 0 0
03-04-2019 13.4 (17:10) 3.8 (00:00) 8.6 12.22 (18:30) 8.61 (18:30) 0 0 0 0 0
02-04-2019 20.2 (14:30) 7.4 (00:00) 13.8 10.83 (14:50) 7.22 (15:00) 0 0 0 0 0
01-04-2019 16.3 (16:20) 7.2 (00:00) 11.7 5.83 (18:00) 3.89 (18:30) 1.8 0 1.8 0 0
31-03-2019 16.2 (16:30) 2.2 (00:00) 9.2 8.06 (19:20) 5.83 (18:00) 0 0 0 0 0
30-03-2019 17.4 (13:40) 1.8 (00:00) 9.6 8.61 (15:10) 6.11 (14:40) 0 0 0 0 0
29-03-2019 17 (16:50) 4.5 (00:00) 10.8 6.94 (13:30) 5 (13:30) 0 0 0 0 0
28-03-2019 17.4 (14:50) 1.1 (00:00) 9.2 9.72 (16:00) 7.22 (16:10) 0 0 0 0 0
27-03-2019 18.1 (15:30) 0.4 (00:00) 9.3 9.44 (15:40) 7.5 (15:20) 0 0 0 0 0
26-03-2019 20.4 (13:40) 1.9 (00:00) 11.1 14.17 (17:50) 9.17 (18:40) 0 0 0 0 0
25-03-2019 21.5 (15:10) 5.6 (00:00) 13.5 17.22 (18:10) 10.56 (17:50) 0 0 0 0 0
24-03-2019 22.8 (13:50) 4.2 (00:00) 13.5 8.33 (17:50) 6.39 (15:30) 0 0 0 0 0
23-03-2019 21.8 (14:00) 3.5 (00:00) 12.6 9.17 (17:20) 5.56 (16:40) 0 0 0 0 0
22-03-2019 19.7 (14:40) 0.9 (00:00) 10.3 7.22 (15:30) 4.72 (15:50) 0 0 0 0 0
21-03-2019 16.6 (14:40) -0.6 (-00:0) 8 7.5 (15:20) 5.83 (15:40) 0 0 0 0 0

Gráficas

Temp. máximas Temp. mínimas Temp. medias Precipitaciones Rachas de viento máximas Velocidades máximas media en intervalos de 10 minutos

Datos horarios

Fecha y hora oficial Temperatura (ºC) Velocidad del viento (km/h) Dirección del viento Racha (km/h) Dirección de racha Precipitación (mm) Presión (hPa) Tendencia (hPa) Humedad (%)
2019-04-19 23:00:00 12.4 6 Noroeste 13 Norte 0 -- -- 62
2019-04-19 22:00:00 14.5 5 Norte 14 Sudeste 0 -- -- 55
2019-04-19 21:00:00 16.3 4 Nordeste 10 Sudeste 0 -- -- 49
2019-04-19 20:00:00 18 9 Sudeste 15 Sudeste 0 -- -- 45
2019-04-19 19:00:00 19.1 13 Sudeste 16 Sudeste 0 -- -- 42
2019-04-19 18:00:00 19.3 12 Sudeste 14 Sudeste 0 -- -- 40
2019-04-19 17:00:00 20.8 3 Este 10 Sur 0 -- -- 39
2019-04-19 16:00:00 18.8 3 Norte 10 Norte 0 -- -- 38
2019-04-19 15:00:00 16.4 4 Norte 10 Norte 0 -- -- 53
2019-04-19 14:00:00 15 3 Norte 8 Norte 0 -- -- 61
2019-04-19 13:00:00 13.8 3 Nordeste 8 Sur 0 -- -- 63
2019-04-19 12:00:00 12.1 3 Sur 8 Sudoeste 0 -- -- 72
2019-04-19 11:00:00 10.7 0 Calma 5 Nordeste 0 -- -- 77
2019-04-19 10:00:00 10 2 Oeste 10 Noroeste 0 -- -- 74
2019-04-19 09:00:00 8.9 8 Oeste 13 Oeste 0 -- -- 76
2019-04-19 08:00:00 8 10 Noroeste 15 Oeste 0 -- -- 80
2019-04-19 07:00:00 8.2 10 Norte 12 Norte 0 -- -- 81
2019-04-19 06:00:00 8.9 6 Noroeste 10 Oeste 0 -- -- 77
2019-04-19 05:00:00 9.6 8 Oeste 15 Norte 0 -- -- 74
2019-04-19 04:00:00 10.2 7 Noroeste 10 Noroeste 0 -- -- 71
2019-04-19 03:00:00 10.8 7 Norte 13 Norte 0 -- -- 78
2019-04-19 02:00:00 11.1 10 Norte 14 Norte 0 -- -- 79
2019-04-19 01:00:00 11.4 3 Sudoeste 10 Oeste 0 -- -- 78
2019-04-19 00:00:00 12 5 Oeste 12 Norte 0 -- -- 75
2019-04-18 23:00:00 12.6 8 Norte 10 Noroeste 0 -- -- 76
2019-04-18 22:00:00 13.3 3 Nordeste 16 Oeste 0 -- -- 72
2019-04-18 21:00:00 14.6 3 Sudeste 12 Oeste 0 -- -- 63
2019-04-18 20:00:00 15.2 9 Oeste 20 Sudoeste 0 -- -- 64
2019-04-18 19:00:00 15.8 4 Nordeste 11 Sur 0 -- -- 63
2019-04-18 18:00:00 16.5 5 Norte 15 Sur 0 -- -- 58
2019-04-18 17:00:00 17.1 7 Sudeste 17 Este 0 -- -- 55
2019-04-18 16:00:00 18 4 Sudeste 16 Sudeste 0 -- -- 57
2019-04-18 15:00:00 17.7 14 Sudeste 22 Sudeste 0 -- -- 60
2019-04-18 14:00:00 15.8 9 Oeste 16 Oeste 0 -- -- 71
2019-04-18 13:00:00 13.3 6 Oeste 15 Sudoeste 0 -- -- 77
2019-04-18 12:00:00 11.8 8 Noroeste 14 Noroeste 0 -- -- 86
2019-04-18 11:00:00 12.1 2 Nordeste 7 Sudoeste 0 -- -- 82
2019-04-18 10:00:00 10.8 3 Sur 9 Sudoeste 0 -- -- 90
2019-04-18 09:00:00 8.6 4 Oeste 6 Norte 0 -- -- 95
2019-04-18 08:00:00 8.2 5 Oeste 11 Oeste 0 -- -- 94
2019-04-18 07:00:00 8.1 10 Noroeste 12 Noroeste 0 -- -- 94
2019-04-18 06:00:00 8.4 7 Oeste 11 Noroeste 0 -- -- 93
2019-04-18 05:00:00 9 7 Norte 10 Norte 0 -- -- 93
2019-04-18 04:00:00 9.5 7 Oeste 11 Oeste 0 -- -- 89
2019-04-18 03:00:00 10.4 5 Oeste 9 Norte 0 -- -- 87
2019-04-18 02:00:00 11 9 Norte 11 Norte 0 -- -- 86
2019-04-18 01:00:00 11.7 8 Oeste 12 Norte 0 -- -- 82
2019-04-18 00:00:00 13.1 0 Calma 7 Este 0 -- -- 76
2019-04-17 23:00:00 14 4 Este 9 Sudeste 0 -- -- 72
2019-04-17 22:00:00 15.2 6 Nordeste 13 Sur 0 -- -- 67
2019-04-17 21:00:00 16.5 9 Sudeste 19 Sudeste 0 -- -- 62
2019-04-17 20:00:00 19.2 11 Sudeste 18 Sudeste 0 -- -- 51
2019-04-17 19:00:00 20.5 2 Sur 8 Norte 0 -- -- 45
2019-04-17 18:00:00 21.2 3 Oeste 10 Oeste 0 -- -- 46
2019-04-17 17:00:00 20.1 6 Sudeste 17 Sur 0 -- -- 46
2019-04-17 16:00:00 19.8 9 Sudeste 18 Este 0 -- -- 48
2019-04-17 15:00:00 19 4 Sudoeste 10 Este 0 -- -- 51
2019-04-17 14:00:00 18.3 4 Sudeste 14 Sudeste 0 -- -- 56
2019-04-17 13:00:00 16.8 4 Sudeste 11 Sur 0 -- -- 58
2019-04-17 12:00:00 15.7 4 Sudoeste 10 Sur 0 -- -- 60
2019-04-17 11:00:00 14.9 3 Oeste 6 Noroeste 0 -- -- 66
2019-04-17 10:00:00 12.2 2 Oeste 6 Oeste 0 -- -- 79
2019-04-17 09:00:00 9.2 2 Oeste 8 Norte 0 -- -- 91
2019-04-17 08:00:00 7.6 0 Calma 12 Oeste 0 -- -- 92
2019-04-17 07:00:00 8.1 3 Oeste 8 Oeste 0 -- -- 90
2019-04-17 06:00:00 8.3 0 Calma 5 Oeste 0 -- -- 89
2019-04-17 05:00:00 8.2 3 Norte 7 Oeste 0 -- -- 90
2019-04-17 04:00:00 8 5 Noroeste 10 Noroeste 0 -- -- 88
2019-04-17 03:00:00 7.7 8 Oeste 11 Oeste 0 -- -- 88
2019-04-17 02:00:00 8.6 6 Noroeste 10 Oeste 0 -- -- 86
2019-04-17 01:00:00 10 6 Noroeste 9 Noroeste 0 -- -- 79
2019-04-17 00:00:00 11.8 3 Oeste 10 Sur 0 -- -- 71
2019-04-16 23:00:00 13.1 6 Sudoeste 12 Sudoeste 0 -- -- 72
2019-04-16 22:00:00 14.4 8 Sudeste 13 Sudeste 0 -- -- 67
2019-04-16 21:00:00 15.1 5 Sudeste 23 Sudeste 0 -- -- 64
2019-04-16 20:00:00 16.2 17 Sudeste 24 Sur 0 -- -- 59
2019-04-16 19:00:00 17.3 12 Sudeste 20 Sudeste 0 -- -- 56
2019-04-16 18:00:00 17.7 13 Sudeste 21 Sudeste 0 -- -- 52
2019-04-16 17:00:00 18.4 11 Sudeste 19 Sudeste 0 -- -- 55
2019-04-16 16:00:00 18 12 Sudeste 20 Sudeste 0 -- -- 54
2019-04-16 15:00:00 17.4 13 Sudeste 24 Sudeste 0 -- -- 58
2019-04-16 14:00:00 17.7 14 Sudeste 24 Sudeste 0 -- -- 56
2019-04-16 13:00:00 16.6 10 Sudeste 22 Sudeste 0 -- -- 66
2019-04-16 12:00:00 14.4 5 Sudeste 11 Sudeste 0 -- -- 70
2019-04-16 11:00:00 11.9 4 Este 11 Este 0 -- -- 84
2019-04-16 10:00:00 10.1 3 Sudeste 9 Este 0 -- -- 90
2019-04-16 09:00:00 9 5 Sur 10 Sudeste 0 -- -- 94
2019-04-16 08:00:00 8.8 6 Sur 13 Sudeste 0 -- -- 94
2019-04-16 07:00:00 8.9 6 Sur 10 Sur 0 -- -- 93
2019-04-16 06:00:00 9.1 3 Este 8 Sudoeste 0 -- -- 95
2019-04-16 05:00:00 9.4 4 Este 10 Nordeste 0 -- -- 97
2019-04-16 04:00:00 9.3 5 Este 8 Este 0 -- -- 96
2019-04-16 03:00:00 9.3 0 Calma 13 Este 0.4 -- -- 95
2019-04-16 02:00:00 9.4 0 Calma 17 Este 0 -- -- 93
2019-04-16 01:00:00 9.7 9 Sudeste 30 Sudeste 0 -- -- 92
2019-04-16 00:00:00 10.8 13 Este 25 Este 5.2 -- -- 96
2019-04-15 23:00:00 11.4 18 Sudoeste 41 Sudoeste 0.2 -- -- 88
2019-04-15 22:00:00 11.7 9 Oeste 47 Sudoeste 5 -- -- 83
2019-04-15 21:00:00 14.6 5 Sur 26 Sur 0 -- -- 59
2019-04-15 20:00:00 16.3 11 Sudeste 24 Sur 0 -- -- 57
2019-04-15 19:00:00 17.5 17 Sur 32 Sur 0 -- -- 57
2019-04-15 18:00:00 19.9 16 Sudeste 23 Sudeste 0 -- -- 51
2019-04-15 17:00:00 20.2 16 Sudeste 22 Sudeste 0 -- -- 51
2019-04-15 16:00:00 19.9 15 Sudeste 20 Sudeste 0 -- -- 51
2019-04-15 15:00:00 19.3 13 Sudeste 22 Sudeste 0 -- -- 54
2019-04-15 14:00:00 19.6 16 Sudeste 22 Sudeste 0 -- -- 55
2019-04-15 13:00:00 19.3 11 Sudeste 19 Sudeste 0 -- -- 54
2019-04-15 12:00:00 17.5 13 Sudeste 19 Sudeste 0 -- -- 59
2019-04-15 11:00:00 14.4 8 Sudeste 11 Sudeste 0 -- -- 66
2019-04-15 10:00:00 12.2 3 Sur 10 Nordeste 0 -- -- 72
2019-04-15 09:00:00 8.4 3 Noroeste 6 Norte 0 -- -- 84
2019-04-15 08:00:00 7.7 3 Nordeste 12 Noroeste 0 -- -- 82
2019-04-15 07:00:00 7.8 7 Noroeste 11 Noroeste 0 -- -- 82
2019-04-15 06:00:00 8.5 8 Norte 10 Norte 0 -- -- 79
2019-04-15 05:00:00 8.9 7 Oeste 13 Norte 0 -- -- 79
2019-04-15 04:00:00 10.1 8 Noroeste 11 Noroeste 0 -- -- 72
2019-04-15 03:00:00 10.6 11 Norte 16 Norte 0 -- -- 70
2019-04-15 02:00:00 12.3 15 Norte 19 Norte 0 -- -- 64
2019-04-15 01:00:00 12.9 12 Norte 17 Norte 0 -- -- 62
2019-04-15 00:00:00 13.8 10 Norte 14 Norte 0 -- -- 60
2019-04-14 23:00:00 14.6 8 Norte 19 Oeste 0 -- -- 57
2019-04-14 22:00:00 16.3 14 Oeste 23 Noroeste 0 -- -- 53
2019-04-14 21:00:00 18.2 18 Noroeste 26 Norte 0 -- -- 45
2019-04-14 20:00:00 20.2 10 Norte 36 Norte 0 -- -- 42
2019-04-14 19:00:00 20.7 13 Norte 37 Norte 0 -- -- 42
2019-04-14 18:00:00 21.2 13 Norte 41 Norte 0 -- -- 40
2019-04-14 17:00:00 22.4 0 Calma 13 Sudeste 0 -- -- 41
2019-04-14 16:00:00 21.9 5 Este 18 Sudoeste 0 -- -- 42
2019-04-14 15:00:00 22.6 9 Sudoeste 19 Sudoeste 0 -- -- 40
2019-04-14 14:00:00 21.9 9 Sudeste 19 Sudeste 0 -- -- 36
2019-04-14 13:00:00 20.5 10 Sudeste 19 Sudeste 0 -- -- 36
2019-04-14 12:00:00 17.4 6 Sudeste 14 Este 0 -- -- 35
2019-04-14 11:00:00 15.1 5 Sur 11 Este 0 -- -- 38
2019-04-14 10:00:00 10.5 3 Sur 9 Sudeste 0 -- -- 53
2019-04-14 09:00:00 5.8 3 Noroeste 10 Noroeste 0 -- -- 60
2019-04-14 08:00:00 4.6 4 Noroeste 8 Norte 0 -- -- 57
2019-04-14 07:00:00 4.7 5 Noroeste 12 Norte 0 -- -- 54
2019-04-14 06:00:00 5.2 6 Noroeste 10 Norte 0 -- -- 51
2019-04-14 05:00:00 5.2 9 Norte 14 Noroeste 0 -- -- 48
2019-04-14 04:00:00 6 5 Noroeste 15 Norte 0 -- -- 41
2019-04-14 03:00:00 6.3 12 Norte 16 Norte 0 -- -- 40
2019-04-14 02:00:00 7.3 10 Noroeste 17 Norte 0 -- -- 36
2019-04-14 01:00:00 8.4 9 Noroeste 18 Norte 0 -- -- 33
2019-04-14 00:00:00 8.8 14 Norte 19 Norte 0 -- -- 33
2019-04-13 23:00:00 10.8 13 Norte 20 Noroeste 0 -- -- 29
2019-04-13 22:00:00 13.2 8 Noroeste 14 Noroeste 0 -- -- 25
2019-04-13 21:00:00 16.1 8 Noroeste 16 Norte 0 -- -- 23
2019-04-13 20:00:00 19.1 8 Sudeste 21 Sudeste 0 -- -- 28
2019-04-13 19:00:00 20.3 13 Sudeste 27 Sur 0 -- -- 25
2019-04-13 18:00:00 21.3 17 Sudoeste 33 Sur 0 -- -- 23
2019-04-13 17:00:00 21.2 22 Sur 33 Sur 0 -- -- 23
2019-04-13 16:00:00 21.7 14 Sur 29 Sudeste 0 -- -- 24
2019-04-13 15:00:00 20.8 20 Sudeste 26 Sudeste 0 -- -- 25
2019-04-13 14:00:00 19.5 17 Sudeste 23 Sudeste 0 -- -- 21
2019-04-13 13:00:00 18.1 12 Sudeste 18 Sudeste 0 -- -- 22
2019-04-13 12:00:00 15.1 8 Sudeste 15 Nordeste 0 -- -- 27
2019-04-13 11:00:00 11.5 3 Sudoeste 9 Sur 0 -- -- 35
2019-04-13 10:00:00 7.3 2 Sur 7 Nordeste 0 -- -- 48
2019-04-13 09:00:00 2.8 5 Noroeste 10 Oeste 0 -- -- 57
2019-04-13 08:00:00 1 5 Noroeste 13 Noroeste 0 -- -- 56
2019-04-13 07:00:00 1.8 5 Noroeste 11 Noroeste 0 -- -- 53
2019-04-13 06:00:00 2.7 4 Noroeste 12 Oeste 0 -- -- 48
2019-04-13 05:00:00 3.5 7 Noroeste 10 Oeste 0 -- -- 47
2019-04-13 04:00:00 4.8 6 Oeste 14 Oeste 0 -- -- 43
2019-04-13 03:00:00 6.2 7 Oeste 13 Oeste 0 -- -- 38
2019-04-13 02:00:00 7.6 8 Oeste 22 Oeste 0 -- -- 33
2019-04-13 01:00:00 9.2 12 Oeste 27 Oeste 0 -- -- 30
2019-04-13 00:00:00 10.5 15 Oeste 33 Norte 0 -- -- 24
2019-04-12 23:00:00 12.2 22 Norte 45 Norte 0 -- -- 22
2019-04-12 22:00:00 12.6 22 Norte 61 Norte 0 -- -- 25
2019-04-12 21:00:00 13.5 28 Norte 55 Norte 0 -- -- 23
2019-04-12 20:00:00 15.3 33 Norte 56 Norte 0 -- -- 21
2019-04-12 19:00:00 16.9 30 Norte 51 Norte 0 -- -- 20
2019-04-12 18:00:00 18.1 24 Norte 48 Norte 0 -- -- 19
2019-04-12 17:00:00 19.3 22 Norte 45 Norte 0 -- -- 18
2019-04-12 16:00:00 19.8 17 Norte 40 Norte 0 -- -- 19
2019-04-12 15:00:00 19.6 17 Norte 39 Norte 0 -- -- 19
2019-04-12 14:00:00 18.8 15 Norte 39 Norte 0 -- -- 20
2019-04-12 13:00:00 18 12 Sudeste 26 Sudeste 0 -- -- 27
2019-04-12 12:00:00 16.6 13 Sudeste 18 Este 0 -- -- 32
2019-04-12 11:00:00 13.4 10 Sudeste 17 Sudeste 0 -- -- 45
2019-04-12 10:00:00 9.9 8 Sur 17 Sudeste 0 -- -- 54
2019-04-12 09:00:00 6.7 8 Sudeste 16 Sudeste 0 -- -- 70
2019-04-12 08:00:00 4.7 10 Este 19 Sudeste 0 -- -- 74
2019-04-12 07:00:00 6 10 Sudoeste 34 Oeste 0 -- -- 63
2019-04-12 06:00:00 6.8 8 Sudoeste 25 Noroeste 0 -- -- 57
2019-04-12 05:00:00 6.7 24 Oeste 40 Oeste 0 -- -- 61
2019-04-12 04:00:00 6.5 22 Oeste 36 Oeste 0 -- -- 64
2019-04-12 03:00:00 6.6 20 Oeste 28 Oeste 0 -- -- 65
2019-04-12 02:00:00 6.9 17 Oeste 27 Oeste 0 -- -- 65
2019-04-12 01:00:00 7.7 20 Oeste 27 Oeste 0 -- -- 59
2019-04-12 00:00:00 7.8 14 Noroeste 20 Oeste 0 -- -- 60
2019-04-11 23:00:00 9.1 14 Oeste 21 Oeste 0 -- -- 56
2019-04-11 22:00:00 10 15 Oeste 18 Oeste 0 -- -- 52
2019-04-11 21:00:00 11.2 12 Noroeste 18 Norte 0 -- -- 48
2019-04-11 20:00:00 12.6 12 Norte 17 Norte 0 -- -- 44
2019-04-11 19:00:00 13.6 4 Norte 27 Norte 0 -- -- 43
2019-04-11 18:00:00 15 6 Noroeste 28 Norte 0 -- -- 40
2019-04-11 17:00:00 14.8 10 Norte 34 Norte 0 -- -- 39
2019-04-11 16:00:00 15.2 14 Norte 34 Norte 0 -- -- 37
2019-04-11 15:00:00 16.3 10 Norte 32 Nordeste 0 -- -- 33
2019-04-11 14:00:00 16.2 13 Norte 33 Norte 0 -- -- 31
2019-04-11 13:00:00 15.3 15 Norte 31 Nordeste 0 -- -- 31
2019-04-11 12:00:00 15.5 13 Norte 40 Norte 0 -- -- 30
2019-04-11 11:00:00 14 13 Norte 25 Norte 0 -- -- 32
2019-04-11 10:00:00 11.1 9 Sudeste 15 Noroeste 0 -- -- 49
2019-04-11 09:00:00 6.8 7 Noroeste 24 Oeste 0 -- -- 59
2019-04-11 08:00:00 5 22 Oeste 40 Oeste 0 -- -- 60
2019-04-11 07:00:00 5.4 20 Oeste 33 Noroeste 0 -- -- 59
2019-04-11 06:00:00 6.2 20 Oeste 35 Oeste 0 -- -- 56
2019-04-11 05:00:00 6.1 24 Oeste 32 Oeste 0 -- -- 59
2019-04-11 04:00:00 6.6 24 Oeste 32 Oeste 0 -- -- 60
2019-04-11 03:00:00 7 21 Oeste 28 Oeste 0 -- -- 58
2019-04-11 02:00:00 7 13 Oeste 22 Oeste 0 -- -- 60
2019-04-11 01:00:00 7.7 17 Oeste 23 Oeste 0 -- -- 58
2019-04-11 00:00:00 8.5 18 Oeste 22 Norte 0 -- -- 53
2019-04-10 23:00:00 11 13 Norte 25 Nordeste 0 -- -- 41
2019-04-10 22:00:00 11.2 5 Norte 35 Este 0 -- -- 40
2019-04-10 21:00:00 12.1 10 Sudoeste 34 Norte 0 -- -- 39
2019-04-10 20:00:00 13.9 10 Norte 38 Norte 0 -- -- 36
2019-04-10 19:00:00 14.3 15 Sudeste 35 Nordeste 0 -- -- 51
2019-04-10 18:00:00 16.5 19 Norte 46 Norte 0 -- -- 32
2019-04-10 17:00:00 17.9 14 Norte 43 Norte 0 -- -- 30
2019-04-10 16:00:00 17.9 16 Norte 38 Norte 0 -- -- 32
2019-04-10 15:00:00 17.8 17 Norte 30 Norte 0 -- -- 34
2019-04-10 14:00:00 17.6 9 Norte 35 Norte 0 -- -- 30
2019-04-10 13:00:00 16.9 9 Sudeste 19 Sudeste 0 -- -- 38
2019-04-10 12:00:00 14.2 11 Sudeste 19 Sudeste 0 -- -- 46
2019-04-10 11:00:00 11.5 3 Sur 11 Sudeste 0 -- -- 62
2019-04-10 10:00:00 8.6 5 Sudeste 12 Este 0 -- -- 76
2019-04-10 09:00:00 5.6 6 Nordeste 14 Nordeste 0 -- -- 88
2019-04-10 08:00:00 3.2 5 Norte 14 Noroeste 0 -- -- 96
2019-04-10 07:00:00 3 9 Norte 15 Norte 0 -- -- 96
2019-04-10 06:00:00 3.5 14 Norte 19 Norte 0 -- -- 94
2019-04-10 05:00:00 4.2 13 Norte 18 Norte 0 -- -- 94
2019-04-10 04:00:00 4.8 4 Noroeste 18 Norte 0 -- -- 93
2019-04-10 03:00:00 5.5 9 Norte 13 Norte 0 -- -- 95
2019-04-10 02:00:00 6.6 8 Norte 10 Norte 0 -- -- 93
2019-04-10 01:00:00 7.4 4 Norte 15 Norte 0 -- -- 90
2019-04-10 00:00:00 8.1 3 Norte 25 Nordeste 0 -- -- 80
2019-04-09 23:00:00 9.1 8 Este 22 Este 0 -- -- 71
2019-04-09 22:00:00 9.6 10 Este 38 Este 0 -- -- 68
2019-04-09 21:00:00 10.9 14 Este 46 Este 0 -- -- 62
2019-04-09 20:00:00 15 10 Oeste 30 Oeste 0 -- -- 39
2019-04-09 19:00:00 17.1 20 Oeste 35 Noroeste 0 -- -- 35
2019-04-09 18:00:00 16.9 22 Noroeste 31 Noroeste 0 -- -- 38
2019-04-09 17:00:00 17.8 9 Nordeste 26 Norte 0 -- -- 38
2019-04-09 16:00:00 17.3 13 Norte 29 Norte 0 -- -- 39
2019-04-09 15:00:00 16.3 15 Sudoeste 42 Sudoeste 0 -- -- 40
2019-04-09 14:00:00 17.1 16 Oeste 32 Oeste 0 -- -- 42
2019-04-09 13:00:00 17.1 8 Sur 18 Sudeste 0 -- -- 40
2019-04-09 12:00:00 15 6 Sudeste 15 Sur 0 -- -- 51
2019-04-09 11:00:00 12.4 6 Este 13 Este 0 -- -- 61
2019-04-09 10:00:00 9.4 5 Este 14 Nordeste 0 -- -- 74
2019-04-09 09:00:00 5.8 3 Oeste 15 Norte 0 -- -- 92
2019-04-09 08:00:00 4.5 6 Noroeste 10 Oeste 0 -- -- 92
2019-04-09 07:00:00 4.6 7 Noroeste 10 Noroeste 0 -- -- 92
2019-04-09 06:00:00 5.4 6 Norte 10 Norte 0 -- -- 90
2019-04-09 05:00:00 6.3 3 Noroeste 13 Oeste 0 -- -- 85
2019-04-09 04:00:00 6.3 8 Noroeste 19 Sudoeste 0 -- -- 88
2019-04-09 03:00:00 6.7 10 Norte 17 Norte 0 -- -- 84
2019-04-09 02:00:00 7.1 8 Noroeste 16 Norte 0 -- -- 82
2019-04-09 01:00:00 7.6 14 Norte 17 Norte 0 -- -- 80
2019-04-09 00:00:00 8.4 8 Norte 16 Norte 0 -- -- 79
2019-04-08 23:00:00 8.3 12 Norte 18 Norte 0 -- -- 81
2019-04-08 22:00:00 9.6 11 Norte 17 Norte 0 -- -- 74
2019-04-08 21:00:00 12.2 5 Oeste 13 Oeste 0 -- -- 61
2019-04-08 20:00:00 14.5 13 Sudoeste 21 Sudoeste 0 -- -- 56
2019-04-08 19:00:00 15.6 8 Norte 32 Oeste 0 -- -- 51
2019-04-08 18:00:00 16.9 5 Oeste 15 Noroeste 0 -- -- 50
2019-04-08 17:00:00 14.9 6 Sudeste 14 Sudeste 0 -- -- 59
2019-04-08 16:00:00 15 4 Sudoeste 21 Sudeste 0 -- -- 59
2019-04-08 15:00:00 15 13 Sudeste 19 Sudeste 0 -- -- 56
2019-04-08 14:00:00 14.8 5 Sur 15 Sur 0 -- -- 51
2019-04-08 13:00:00 14.3 8 Sudeste 16 Sudeste 0 -- -- 52
2019-04-08 12:00:00 12.5 9 Sudeste 14 Sudeste 0 -- -- 56
2019-04-08 11:00:00 11.4 6 Sudeste 12 Este 0 -- -- 62
2019-04-08 10:00:00 7.7 3 Sur 9 Nordeste 0 -- -- 79
2019-04-08 09:00:00 4.9 6 Norte 9 Norte 0 -- -- 89
2019-04-08 08:00:00 4.2 3 Oeste 10 Noroeste 0 -- -- 88
2019-04-08 07:00:00 4.2 8 Noroeste 14 Norte 0 -- -- 88
2019-04-08 06:00:00 3.7 13 Norte 18 Norte 0 -- -- 89
2019-04-08 05:00:00 3.7 11 Norte 15 Norte 0 -- -- 89
2019-04-08 04:00:00 3.7 11 Norte 18 Noroeste 0 -- -- 89
2019-04-08 03:00:00 4.4 10 Norte 18 Norte 0 -- -- 86
2019-04-08 02:00:00 5.1 6 Noroeste 17 Norte 0 -- -- 83
2019-04-08 01:00:00 5.4 5 Norte 17 Noroeste 0 -- -- 81
2019-04-08 00:00:00 6.1 11 Norte 22 Norte 0 -- -- 80
2019-04-07 23:00:00 6.9 16 Norte 20 Norte 0 -- -- 77
2019-04-07 22:00:00 9 7 Oeste 24 Oeste 0 -- -- 66
2019-04-07 21:00:00 10.2 10 Oeste 23 Sudoeste 0 -- -- 63
2019-04-07 20:00:00 13 12 Oeste 24 Oeste 0 -- -- 52
2019-04-07 19:00:00 14.2 15 Oeste 22 Oeste 0 -- -- 48
2019-04-07 18:00:00 14.5 6 Sudeste 18 Sudeste 0 -- -- 48
2019-04-07 17:00:00 13.7 6 Sudeste 31 Noroeste 0 -- -- 56
2019-04-07 16:00:00 15.4 19 Oeste 28 Oeste 0 -- -- 43
2019-04-07 15:00:00 13.1 9 Oeste 24 Oeste 0 -- -- 49
2019-04-07 14:00:00 14.5 11 Oeste 17 Sudoeste 0 -- -- 50
2019-04-07 13:00:00 12.6 6 Sudoeste 14 Noroeste 0 -- -- 58
2019-04-07 12:00:00 11 6 Sudeste 15 Este 0 -- -- 68
2019-04-07 11:00:00 8.2 7 Este 11 Nordeste 0 -- -- 81
2019-04-07 10:00:00 4.8 6 Sudeste 10 Sudeste 0 -- -- 97
2019-04-07 09:00:00 3.1 3 Sudeste 9 Norte 0 -- -- 100
2019-04-07 08:00:00 0.8 5 Norte 12 Norte 0 -- -- 100
2019-04-07 07:00:00 1.9 5 Norte 8 Norte 0 -- -- 99
2019-04-07 06:00:00 2.8 3 Norte 10 Nordeste 0 -- -- 98
2019-04-07 05:00:00 2.8 4 Noroeste 12 Noroeste 0 -- -- 97
2019-04-07 04:00:00 3 8 Norte 13 Noroeste 0 -- -- 96
2019-04-07 03:00:00 3.3 9 Norte 11 Noroeste 0 -- -- 96
2019-04-07 02:00:00 3.3 6 Norte 16 Noroeste 0 -- -- 96
2019-04-07 01:00:00 3.4 8 Noroeste 14 Norte 0 -- -- 96
2019-04-07 00:00:00 3.4 10 Norte 15 Noroeste 0 -- -- 96
2019-04-06 23:00:00 3.7 2 Norte 25 Sudoeste 3 -- -- 97
2019-04-06 22:00:00 4.7 9 Oeste 18 Oeste 0.6 -- -- 95
2019-04-06 21:00:00 4.9 8 Noroeste 13 Norte 0 -- -- 93
2019-04-06 20:00:00 6 9 Norte 14 Noroeste 0 -- -- 84
2019-04-06 19:00:00 7.1 4 Oeste 17 Nordeste 0 -- -- 86
2019-04-06 18:00:00 5.4 6 Sur 40 Oeste 2.6 -- -- 87
2019-04-06 17:00:00 8.3 14 Sudeste 29 Sur 0 -- -- 76
2019-04-06 16:00:00 9.7 8 Oeste 13 Oeste 0 -- -- 65
2019-04-06 15:00:00 9.8 6 Norte 15 Norte 0 -- -- 70
2019-04-06 14:00:00 7.2 4 Norte 10 Norte 0 -- -- 82
2019-04-06 13:00:00 6.2 4 Sudoeste 8 Sudoeste 1.6 -- -- 96
2019-04-06 12:00:00 3 5 Oeste 6 Oeste 2.4 -- -- 99
2019-04-06 11:00:00 1.9 0 Calma 5 Nordeste 2.2 -- -- 100
2019-04-06 10:00:00 0.8 2 Noroeste 5 Norte 1.2 -- -- 100
2019-04-06 09:00:00 0.2 0 Calma 4 Norte 0.4 -- -- 100
2019-04-06 08:00:00 0.1 0 Calma 5 Noroeste 0 -- -- 100
2019-04-06 07:00:00 0.2 4 Noroeste 6 Norte 0 -- -- 99
2019-04-06 06:00:00 0.7 3 Nordeste 9 Sudoeste 0.8 -- -- 100
2019-04-06 05:00:00 0.5 2 Nordeste 10 Oeste 1.8 -- -- 99
2019-04-06 04:00:00 1.1 8 Norte 11 Norte 4.4 -- -- 97
2019-04-06 03:00:00 2.7 4 Noroeste 17 Noroeste 4 -- -- 98
2019-04-06 02:00:00 2.8 13 Noroeste 23 Norte 1.8 -- -- 97
2019-04-06 01:00:00 3.1 15 Norte 22 Norte 2.6 -- -- 97
2019-04-06 00:00:00 3.4 13 Norte 18 Norte 2.6 -- -- 97
2019-04-05 23:00:00 3.8 12 Oeste 18 Oeste 1.8 -- -- 96
2019-04-05 22:00:00 4.7 13 Oeste 18 Oeste 3.6 -- -- 95
2019-04-05 21:00:00 5.2 12 Oeste 16 Oeste 5 -- -- 95
2019-04-05 20:00:00 6.2 14 Oeste 19 Oeste 1.6 -- -- 91
2019-04-05 19:00:00 7.3 10 Oeste 13 Oeste 0.4 -- -- 88
2019-04-05 18:00:00 8.2 8 Noroeste 13 Oeste 0.6 -- -- 88
2019-04-05 17:00:00 9.5 6 Oeste 10 Oeste 0.4 -- -- 78
2019-04-05 16:00:00 10.5 5 Sur 12 Sur 0 -- -- 65
2019-04-05 15:00:00 9.7 6 Oeste 10 Oeste 0 -- -- 71
2019-04-05 14:00:00 8.8 5 Oeste 11 Oeste 0 -- -- 78
2019-04-05 13:00:00 7.5 5 Oeste 11 Sudoeste 0 -- -- 78
2019-04-05 12:00:00 6 6 Oeste 10 Oeste 0.4 -- -- 88
2019-04-05 11:00:00 5.3 7 Oeste 11 Oeste 0.4 -- -- 84
2019-04-05 10:00:00 5.4 5 Sudeste 12 Sur 0 -- -- 81
2019-04-05 09:00:00 5.8 5 Sudeste 13 Sudeste 0 -- -- 64
2019-04-05 08:00:00 4.8 7 Oeste 17 Noroeste 0 -- -- 65
2019-04-05 07:00:00 4.3 7 Oeste 12 Noroeste 0 -- -- 71
2019-04-05 06:00:00 4.4 3 Este 10 Oeste 0 -- -- 67
2019-04-05 05:00:00 4.3 9 Oeste 16 Norte 0 -- -- 68
2019-04-05 04:00:00 4.4 6 Norte 10 Noroeste 0 -- -- 64
2019-04-05 03:00:00 4.3 6 Noroeste 12 Oeste 0 -- -- 63
2019-04-05 02:00:00 4.2 9 Oeste 12 Oeste 0 -- -- 65
2019-04-05 01:00:00 4.6 7 Sudeste 10 Sudeste 0 -- -- 61
2019-04-05 00:00:00 4.8 7 Oeste 15 Norte 0 -- -- 60
2019-04-04 23:00:00 5.9 12 Noroeste 15 Noroeste 0 -- -- 54
2019-04-04 22:00:00 7.6 5 Este 12 Sudeste 0 -- -- 50
2019-04-04 21:00:00 8.8 5 Sudeste 16 Sudeste 0 -- -- 45
2019-04-04 20:00:00 10.4 10 Sur 29 Sudoeste 0 -- -- 41
2019-04-04 19:00:00 13.4 22 Sudoeste 31 Sudoeste 0 -- -- 33
2019-04-04 18:00:00 14.3 7 Sudoeste 30 Oeste 0 -- -- 31
2019-04-04 17:00:00 14.6 14 Sudoeste 25 Oeste 0 -- -- 30
2019-04-04 16:00:00 13.9 8 Sudoeste 29 Oeste 0 -- -- 32
2019-04-04 15:00:00 13.8 8 Sur 20 Sudoeste 0 -- -- 35
2019-04-04 14:00:00 10.3 5 Sur 23 Sudeste 0 -- -- 37
2019-04-04 13:00:00 11.3 9 Este 21 Sudeste 0 -- -- 40
2019-04-04 12:00:00 10.1 10 Sudeste 23 Este 0 -- -- 45
2019-04-04 11:00:00 7.3 10 Sudeste 19 Sudeste 0 -- -- 50
2019-04-04 10:00:00 4.2 6 Este 14 Norte 0 -- -- 62
2019-04-04 09:00:00 0.3 12 Norte 17 Norte 0 -- -- 76
2019-04-04 08:00:00 -1.6 12 Norte 18 Norte 0 -- -- 82
2019-04-04 07:00:00 -1.2 8 Norte 14 Norte 0 -- -- 79
2019-04-04 06:00:00 -0.6 8 Norte 14 Este 0 -- -- 77
2019-04-04 05:00:00 1.6 6 Oeste 32 Noroeste 0 -- -- 64
2019-04-04 04:00:00 2.6 21 Noroeste 41 Noroeste 0 -- -- 58
2019-04-04 03:00:00 2.6 15 Noroeste 36 Oeste 0 -- -- 59
2019-04-04 02:00:00 3 21 Oeste 31 Oeste 0 -- -- 60
2019-04-04 01:00:00 3.4 19 Oeste 33 Oeste 0 -- -- 61
2019-04-04 00:00:00 3.8 4 Sur 24 Sudoeste 0 -- -- 60
2019-04-03 23:00:00 4.5 5 Sudeste 33 Oeste 0 -- -- 57
2019-04-03 22:00:00 5.7 12 Oeste 36 Noroeste 0 -- -- 53
2019-04-03 21:00:00 6.9 19 Oeste 33 Oeste 0 -- -- 54
2019-04-03 20:00:00 8.6 18 Oeste 32 Oeste 0 -- -- 48
2019-04-03 19:00:00 10.6 26 Oeste 44 Oeste 0 -- -- 41
2019-04-03 18:00:00 13 25 Oeste 36 Oeste 0 -- -- 38
2019-04-03 17:00:00 13.3 23 Oeste 38 Oeste 0 -- -- 43
2019-04-03 16:00:00 11.3 9 Noroeste 34 Oeste 0 -- -- 44
2019-04-03 15:00:00 9.6 30 Sudoeste 40 Sudoeste 0 -- -- 61
2019-04-03 14:00:00 10.5 22 Sudoeste 28 Sudoeste 0 -- -- 57
2019-04-03 13:00:00 10.4 12 Sudoeste 23 Sudoeste 0 -- -- 59
2019-04-03 12:00:00 10.5 12 Sudoeste 25 Oeste 0 -- -- 63
2019-04-03 11:00:00 9.9 4 Sudeste 10 Sur 0 -- -- 71
2019-04-03 10:00:00 8.8 2 Noroeste 5 Noroeste 0 -- -- 79
2019-04-03 09:00:00 7.6 4 Noroeste 10 Oeste 0 -- -- 82
2019-04-03 08:00:00 7.4 6 Oeste 15 Este 0 -- -- 83
2019-04-03 07:00:00 7.3 8 Este 15 Este 0 -- -- 82
2019-04-03 06:00:00 7.6 3 Sur 6 Sur 0 -- -- 75
2019-04-03 05:00:00 7.7 5 Oeste 16 Norte 0 -- -- 74
2019-04-03 04:00:00 7.8 9 Norte 14 Norte 0 -- -- 73
2019-04-03 03:00:00 8.2 4 Noroeste 19 Norte 0 -- -- 67
2019-04-03 02:00:00 8.5 13 Norte 16 Norte 0 -- -- 68
2019-04-03 01:00:00 8.5 12 Norte 20 Norte 0 -- -- 67
2019-04-03 00:00:00 10 10 Norte 19 Norte 0 -- -- 61
2019-04-02 23:00:00 12 2 Sur 12 Oeste 0 -- -- 47
2019-04-02 22:00:00 13.1 7 Noroeste 27 Oeste 0 -- -- 44
2019-04-02 21:00:00 14.2 18 Oeste 27 Oeste 0 -- -- 41
2019-04-02 20:00:00 17.2 17 Oeste 28 Oeste 0 -- -- 34
2019-04-02 19:00:00 18.8 19 Oeste 32 Oeste 0 -- -- 31
2019-04-02 18:00:00 19.7 17 Oeste 30 Oeste 0 -- -- 36
2019-04-02 17:00:00 19.1 20 Oeste 32 Oeste 0 -- -- 36
2019-04-02 16:00:00 18 19 Oeste 34 Sudoeste 0 -- -- 42
2019-04-02 15:00:00 17.3 26 Oeste 39 Sudoeste 0 -- -- 42
2019-04-02 14:00:00 18.7 24 Sudoeste 36 Oeste 0 -- -- 40
2019-04-02 13:00:00 16.6 9 Sur 16 Sur 0 -- -- 56
2019-04-02 12:00:00 15.8 10 Sudeste 18 Este 0 -- -- 63
2019-04-02 11:00:00 13.1 8 Sudeste 12 Sudeste 0 -- -- 74
2019-04-02 10:00:00 10 3 Este 11 Norte 0 -- -- 89
2019-04-02 09:00:00 7.9 5 Norte 13 Norte 0 -- -- 96
2019-04-02 08:00:00 7.6 5 Noroeste 10 Oeste 0 -- -- 97
2019-04-02 07:00:00 8.2 4 Noroeste 10 Oeste 0 -- -- 95
2019-04-02 06:00:00 8.7 6 Oeste 9 Norte 0 -- -- 94
2019-04-02 05:00:00 9 4 Norte 7 Norte 0 -- -- 94
2019-04-02 04:00:00 9.3 4 Noroeste 8 Noroeste 0 -- -- 93
2019-04-02 03:00:00 9.3 6 Noroeste 8 Norte 0 -- -- 92
2019-04-02 02:00:00 9.5 6 Noroeste 10 Oeste 0 -- -- 92
2019-04-02 01:00:00 9.8 4 Oeste 8 Noroeste 0 -- -- 92
2019-04-02 00:00:00 10 5 Oeste 9 Noroeste 0 -- -- 91
2019-04-01 23:00:00 10.4 5 Noroeste 9 Noroeste 0 -- -- 89
2019-04-01 22:00:00 11.5 0 Calma 8 Oeste 0 -- -- 85
2019-04-01 21:00:00 12 2 Sur 9 Sudoeste 0 -- -- 79
2019-04-01 20:00:00 13 6 Sudoeste 14 Sur 0 -- -- 76
2019-04-01 19:00:00 14.3 7 Oeste 18 Sudeste 0 -- -- 68
2019-04-01 18:00:00 15.3 12 Sudeste 21 Sudeste 0 -- -- 61
2019-04-01 17:00:00 15.8 6 Oeste 16 Oeste 0 -- -- 61
2019-04-01 16:00:00 15.8 11 Oeste 17 Sudoeste 0 -- -- 63
2019-04-01 15:00:00 15.2 5 Oeste 14 Oeste 0 -- -- 63
2019-04-01 14:00:00 15.2 7 Sudoeste 10 Sudoeste 0 -- -- 64
2019-04-01 13:00:00 13 5 Sudeste 9 Este 0 -- -- 80
2019-04-01 12:00:00 11.1 3 Este 6 Este 0 -- -- 89
2019-04-01 11:00:00 9.2 3 Sudeste 5 Sur 0.2 -- -- 94
2019-04-01 10:00:00 7.9 0 Calma 5 Sudoeste 0.6 -- -- 96
2019-04-01 09:00:00 7.4 2 Noroeste 5 Este 0.4 -- -- 95
2019-04-01 08:00:00 7.2 3 Oeste 5 Oeste 0.4 -- -- 94
2019-04-01 07:00:00 7.3 2 Sudoeste 9 Oeste 0.2 -- -- 91
2019-04-01 06:00:00 7.5 2 Oeste 6 Norte 0 -- -- 86
2019-04-01 05:00:00 7.7 2 Oeste 6 Oeste 0 -- -- 84
2019-04-01 04:00:00 7.8 5 Noroeste 7 Noroeste 0 -- -- 82
2019-04-01 03:00:00 8.1 3 Noroeste 5 Noroeste 0 -- -- 81
2019-04-01 02:00:00 8.2 0 Calma 3 Oeste 0 -- -- 79
2019-04-01 01:00:00 8.6 2 Oeste 8 Oeste 0 -- -- 77
2019-04-01 00:00:00 8.7 6 Noroeste 10 Noroeste 0 -- -- 77
2019-03-31 23:00:00 9.1 6 Noroeste 9 Noroeste 0 -- -- 76
2019-03-31 22:00:00 9.8 4 Norte 8 Este 0 -- -- 74
2019-03-31 21:00:00 10.5 8 Este 20 Sudeste 0 -- -- 71
2019-03-31 20:00:00 11.3 14 Sudeste 29 Sudeste 0 -- -- 69
2019-03-31 19:00:00 12.8 14 Sudeste 27 Sudeste 0 -- -- 63
2019-03-31 18:00:00 13.8 21 Sudeste 26 Sudeste 0 -- -- 55
2019-03-31 17:00:00 15.6 11 Sudeste 18 Sudeste 0 -- -- 46
2019-03-31 16:00:00 15.4 11 Sudeste 19 Sudeste 0 -- -- 44
2019-03-31 15:00:00 15 14 Sudeste 21 Sudeste 0 -- -- 50
2019-03-31 14:00:00 15 9 Sudeste 18 Sudeste 0 -- -- 49
2019-03-31 13:00:00 13.8 13 Sudeste 18 Sudeste 0 -- -- 53
2019-03-31 12:00:00 11.7 5 Este 10 Sudeste 0 -- -- 56
2019-03-31 11:00:00 8.6 3 Sudeste 10 Sudeste 0 -- -- 65
2019-03-31 10:00:00 4.8 6 Sudeste 9 Sudeste 0 -- -- 81
2019-03-31 09:00:00 2.8 2 Norte 5 Norte 0 -- -- 89
2019-03-31 08:00:00 2.3 2 Oeste 6 Norte 0 -- -- 88
2019-03-31 07:00:00 2.2 6 Noroeste 12 Norte 0 -- -- 91
2019-03-31 06:00:00 2.8 9 Norte 13 Norte 0 -- -- 89
2019-03-31 05:00:00 3.4 6 Oeste 11 Norte 0 -- -- 87
2019-03-31 03:00:00 4.6 8 Noroeste 13 Oeste 0 -- -- 80
2019-03-31 01:00:00 5.3 12 Oeste 13 Noroeste 0 -- -- 78
2019-03-31 00:00:00 6.7 5 Noroeste 10 Norte 0 -- -- 70
2019-03-30 23:00:00 7.5 10 Norte 12 Norte 0 -- -- 67
2019-03-30 22:00:00 8.6 5 Oeste 13 Oeste 0 -- -- 59
2019-03-30 21:00:00 10.8 0 Calma 9 Sudeste 0 -- -- 55
2019-03-30 20:00:00 12.4 7 Sudeste 13 Sur 0 -- -- 53
2019-03-30 19:00:00 14.6 10 Sur 20 Sur 0 -- -- 42
2019-03-30 18:00:00 15.8 13 Sudeste 24 Sudeste 0 -- -- 40
2019-03-30 17:00:00 16.7 16 Sudeste 26 Sudeste 0 -- -- 38
2019-03-30 16:00:00 16.8 19 Sudeste 31 Sudeste 0 -- -- 36
2019-03-30 15:00:00 17.1 19 Sudeste 30 Sudeste 0 -- -- 38
2019-03-30 14:00:00 17 15 Sudeste 23 Sudeste 0 -- -- 37
2019-03-30 13:00:00 16.6 14 Sudeste 24 Sudeste 0 -- -- 39
2019-03-30 12:00:00 15.3 12 Sudeste 19 Sudeste 0 -- -- 40
2019-03-30 11:00:00 13.7 8 Sudeste 14 Sudeste 0 -- -- 50
2019-03-30 10:00:00 10.5 5 Sudoeste 10 Este 0 -- -- 60
2019-03-30 09:00:00 6.3 5 Sudeste 10 Este 0 -- -- 71
2019-03-30 08:00:00 3.3 0 Calma 8 Oeste 0 -- -- 84
2019-03-30 07:00:00 1.8 8 Noroeste 11 Noroeste 0 -- -- 87
2019-03-30 06:00:00 2.6 7 Noroeste 12 Norte 0 -- -- 84
2019-03-30 05:00:00 3 4 Noroeste 10 Noroeste 0 -- -- 82
2019-03-30 04:00:00 3 7 Noroeste 12 Noroeste 0 -- -- 82
2019-03-30 03:00:00 3.6 8 Oeste 11 Noroeste 0 -- -- 79
2019-03-30 02:00:00 4 8 Oeste 14 Noroeste 0 -- -- 77
2019-03-30 01:00:00 4.8 9 Oeste 14 Oeste 0 -- -- 74
2019-03-30 00:00:00 6.1 8 Noroeste 13 Noroeste 0 -- -- 70
2019-03-29 23:00:00 9 0 Calma 11 Sur 0 -- -- 57
2019-03-29 22:00:00 9.9 5 Sur 10 Sudeste 0 -- -- 56
2019-03-29 21:00:00 10.7 3 Este 12 Oeste 0 -- -- 52
2019-03-29 20:00:00 12.4 3 Sur 14 Sur 0 -- -- 45
2019-03-29 19:00:00 14.5 9 Sur 18 Sur 0 -- -- 39
2019-03-29 18:00:00 16.1 9 Sur 15 Sudeste 0 -- -- 36
2019-03-29 17:00:00 16.7 11 Sudeste 21 Sudoeste 0 -- -- 36
2019-03-29 16:00:00 15.7 8 Sudeste 21 Sudeste 0 -- -- 38
2019-03-29 15:00:00 15.3 9 Sudeste 19 Sudeste 0 -- -- 41
2019-03-29 14:00:00 15.6 12 Sudeste 25 Sudeste 0 -- -- 41
2019-03-29 13:00:00 16.2 13 Sudeste 22 Sudeste 0 -- -- 38
2019-03-29 12:00:00 15 10 Sudeste 17 Sudeste 0 -- -- 43
2019-03-29 11:00:00 13.2 6 Este 11 Sudeste 0 -- -- 49
2019-03-29 10:00:00 10.5 3 Sudeste 8 Sudeste 0 -- -- 60
2019-03-29 09:00:00 8.1 3 Sudoeste 5 Norte 0 -- -- 69
2019-03-29 08:00:00 5.4 4 Noroeste 13 Oeste 0 -- -- 77
2019-03-29 07:00:00 5 7 Oeste 9 Oeste 0 -- -- 78
2019-03-29 06:00:00 4.5 6 Oeste 8 Noroeste 0 -- -- 79
2019-03-29 05:00:00 4.9 6 Oeste 10 Oeste 0 -- -- 77
2019-03-29 04:00:00 5.4 3 Noroeste 7 Noroeste 0 -- -- 74
2019-03-29 03:00:00 5.4 5 Noroeste 12 Oeste 0 -- -- 74
2019-03-29 02:00:00 5.4 7 Oeste 13 Oeste 0 -- -- 74
2019-03-29 01:00:00 6.1 6 Noroeste 8 Oeste 0 -- -- 71
2019-03-29 00:00:00 7.4 4 Norte 8 Sur 0 -- -- 68
2019-03-28 23:00:00 8.7 3 Oeste 10 Oeste 0 -- -- 64
2019-03-28 22:00:00 9.3 8 Oeste 13 Oeste 0 -- -- 62
2019-03-28 21:00:00 11.1 6 Norte 10 Nordeste 0 -- -- 53
2019-03-28 20:00:00 12 5 Nordeste 23 Sudeste 0 -- -- 52
2019-03-28 19:00:00 13.7 19 Sudeste 26 Sudeste 0 -- -- 49
2019-03-28 18:00:00 15.2 21 Sudeste 26 Sudeste 0 -- -- 44
2019-03-28 17:00:00 16.4 21 Sudeste 33 Sudeste 0 -- -- 42
2019-03-28 16:00:00 16.9 26 Sudeste 35 Sudeste 0 -- -- 41
2019-03-28 15:00:00 17.2 22 Sudeste 33 Sudeste 0 -- -- 41
2019-03-28 14:00:00 16.9 24 Sudeste 32 Sudeste 0 -- -- 40
2019-03-28 13:00:00 17 16 Sudeste 24 Sudeste 0 -- -- 39
2019-03-28 12:00:00 15.8 16 Sudeste 23 Sudeste 0 -- -- 40
2019-03-28 11:00:00 13.9 8 Sudeste 15 Sudeste 0 -- -- 40
2019-03-28 10:00:00 10.4 5 Este 10 Sudeste 0 -- -- 46
2019-03-28 09:00:00 6.5 3 Oeste 13 Noroeste 0 -- -- 56
2019-03-28 08:00:00 2.8 3 Oeste 10 Norte 0 -- -- 66
2019-03-28 07:00:00 2 8 Noroeste 13 Noroeste 0 -- -- 66
2019-03-28 06:00:00 2.3 7 Oeste 12 Norte 0 -- -- 65
2019-03-28 05:00:00 3 9 Noroeste 12 Noroeste 0 -- -- 61
2019-03-28 04:00:00 3.7 7 Oeste 12 Oeste 0 -- -- 60
2019-03-28 03:00:00 4.2 8 Oeste 10 Oeste 0 -- -- 58
2019-03-28 02:00:00 5.3 4 Norte 7 Norte 0 -- -- 58
2019-03-28 01:00:00 6.4 0 Calma 10 Noroeste 0 -- -- 54
2019-03-28 00:00:00 7.4 9 Oeste 12 Oeste 0 -- -- 47
2019-03-27 23:00:00 8.3 6 Noroeste 13 Norte 0 -- -- 52
2019-03-27 22:00:00 9.7 9 Oeste 14 Oeste 0 -- -- 47
2019-03-27 21:00:00 12.1 3 Este 12 Nordeste 0 -- -- 42
2019-03-27 20:00:00 13.4 6 Norte 16 Sudeste 0 -- -- 43
2019-03-27 19:00:00 15.6 13 Sudeste 22 Sudeste 0 -- -- 39
2019-03-27 18:00:00 17 18 Sudeste 26 Sudeste 0 -- -- 36
2019-03-27 17:00:00 17.9 21 Sudeste 31 Sudeste 0 -- -- 36
2019-03-27 16:00:00 18 21 Sudeste 34 Sudeste 0 -- -- 38
2019-03-27 15:00:00 17.5 26 Sudeste 32 Sudeste 0 -- -- 38
2019-03-27 14:00:00 17.3 21 Sudeste 27 Sudeste 0 -- -- 39
2019-03-27 13:00:00 17.2 11 Sudeste 20 Sudeste 0 -- -- 33
2019-03-27 12:00:00 15.5 13 Sudeste 20 Sudeste 0 -- -- 36
2019-03-27 11:00:00 13.3 8 Sudeste 14 Sur 0 -- -- 40
2019-03-27 10:00:00 9.3 5 Este 9 Este 0 -- -- 38
2019-03-27 09:00:00 5.3 3 Sudoeste 8 Oeste 0 -- -- 48
2019-03-27 08:00:00 1.1 5 Noroeste 11 Nordeste 0 -- -- 59
2019-03-27 07:00:00 0.7 6 Noroeste 11 Norte 0 -- -- 50
2019-03-27 06:00:00 0.8 7 Noroeste 11 Noroeste 0 -- -- 59
2019-03-27 05:00:00 1.4 7 Oeste 11 Noroeste 0 -- -- 50
2019-03-27 04:00:00 2 8 Oeste 13 Noroeste 0 -- -- 45
2019-03-27 03:00:00 2.6 9 Oeste 14 Oeste 0 -- -- 41
2019-03-27 02:00:00 3.9 10 Oeste 13 Oeste 0 -- -- 35
2019-03-27 01:00:00 5.7 8 Oeste 11 Oeste 0 -- -- 33
2019-03-27 00:00:00 7 6 Sudoeste 14 Este 0 -- -- 34
2019-03-26 23:00:00 8.6 12 Sudeste 15 Sudeste 0 -- -- 30
2019-03-26 22:00:00 11.3 8 Este 28 Nordeste 0 -- -- 22
2019-03-26 21:00:00 13.4 9 Norte 39 Norte 0 -- -- 13
2019-03-26 20:00:00 13.8 20 Norte 48 Norte 0 -- -- 15
2019-03-26 19:00:00 15.3 30 Norte 49 Norte 0 -- -- 15
2019-03-26 18:00:00 17.3 32 Norte 51 Norte 0 -- -- 14
2019-03-26 17:00:00 19 25 Norte 48 Norte 0 -- -- 13
2019-03-26 16:00:00 19.5 27 Norte 50 Norte 0 -- -- 11
2019-03-26 15:00:00 20 22 Norte 44 Norte 0 -- -- 11
2019-03-26 14:00:00 20.1 11 Norte 29 Norte 0 -- -- 12
2019-03-26 13:00:00 18.5 18 Sudeste 24 Sudeste 0 -- -- 23
2019-03-26 12:00:00 16.8 13 Sudeste 23 Sudeste 0 -- -- 23
2019-03-26 11:00:00 14.2 14 Sudeste 22 Sudeste 0 -- -- 32
2019-03-26 10:00:00 10.3 4 Sudoeste 10 Sudeste 0 -- -- 42
2019-03-26 09:00:00 6 2 Oeste 12 Este 0 -- -- 48
2019-03-26 08:00:00 2.4 5 Oeste 15 Norte 0 -- -- 61
2019-03-26 07:00:00 2.3 6 Oeste 28 Norte 0 -- -- 57
2019-03-26 06:00:00 3 6 Oeste 13 Sudoeste 0 -- -- 59
2019-03-26 05:00:00 4.6 4 Sudoeste 15 Sudeste 0 -- -- 61
2019-03-26 04:00:00 5.8 13 Sudeste 17 Sudeste 0 -- -- 55
2019-03-26 03:00:00 7.3 9 Sudeste 19 Sudeste 0 -- -- 46
2019-03-26 02:00:00 7.7 6 Sudeste 19 Norte 0 -- -- 45
2019-03-26 01:00:00 9.7 5 Norte 24 Oeste 0 -- -- 40
2019-03-26 00:00:00 10.5 9 Oeste 30 Norte 0 -- -- 35
2019-03-25 23:00:00 12 23 Norte 51 Norte 0 -- -- 33
2019-03-25 22:00:00 12.5 11 Norte 53 Norte 0 -- -- 32
2019-03-25 21:00:00 13.1 30 Norte 59 Norte 0 -- -- 30
2019-03-25 20:00:00 14 32 Norte 53 Norte 0 -- -- 27
2019-03-25 19:00:00 15.5 30 Norte 62 Norte 0 -- -- 24
2019-03-25 18:00:00 17.4 36 Norte 62 Norte 0 -- -- 21
2019-03-25 17:00:00 18.6 35 Norte 54 Norte 0 -- -- 20
2019-03-25 16:00:00 20.5 24 Norte 42 Norte 0 -- -- 17
2019-03-25 15:00:00 21.4 8 Sudoeste 35 Sudeste 0 -- -- 33
2019-03-25 14:00:00 20.2 22 Sudeste 37 Sudeste 0 -- -- 43
2019-03-25 13:00:00 18.7 23 Sudeste 30 Sudeste 0 -- -- 43
2019-03-25 12:00:00 18.3 17 Sudeste 22 Sudeste 0 -- -- 40
2019-03-25 11:00:00 16.5 10 Sudeste 15 Sudeste 0 -- -- 44
2019-03-25 10:00:00 12.8 5 Sudeste 10 Este 0 -- -- 52
2019-03-25 09:00:00 9.3 3 Sur 8 Este 0 -- -- 64
2019-03-25 08:00:00 5.7 2 Noroeste 8 Norte 0 -- -- 73
2019-03-25 07:00:00 6.1 2 Noroeste 6 Noroeste 0 -- -- 70
2019-03-25 06:00:00 6.7 2 Noroeste 7 Oeste 0 -- -- 67
2019-03-25 05:00:00 7.3 4 Noroeste 8 Norte 0 -- -- 65
2019-03-25 04:00:00 8 4 Noroeste 8 Oeste 0 -- -- 63
2019-03-25 03:00:00 8.5 5 Oeste 8 Oeste 0 -- -- 62
2019-03-25 02:00:00 9.8 6 Oeste 14 Oeste 0 -- -- 58
2019-03-25 01:00:00 10.4 9 Oeste 10 Oeste 0 -- -- 56
2019-03-25 00:00:00 11.2 4 Sur 13 Sudeste 0 -- -- 54
2019-03-24 23:00:00 12.7 4 Sudeste 7 Sudeste 0 -- -- 50
2019-03-24 22:00:00 13.7 4 Oeste 12 Noroeste 0 -- -- 46
2019-03-24 21:00:00 13.7 9 Noroeste 12 Noroeste 0 -- -- 49
2019-03-24 20:00:00 16.9 6 Este 15 Sudeste 0 -- -- 40
2019-03-24 19:00:00 18.9 12 Sudeste 24 Sudeste 0 -- -- 37
2019-03-24 18:00:00 20.2 19 Sudeste 30 Sudeste 0 -- -- 34
2019-03-24 17:00:00 21.6 19 Sudeste 29 Sudeste 0 -- -- 31
2019-03-24 16:00:00 22.1 19 Sudeste 28 Sudeste 0 -- -- 30
2019-03-24 15:00:00 22.1 20 Sudeste 27 Sudeste 0 -- -- 31
2019-03-24 14:00:00 22.5 16 Sudeste 22 Sudeste 0 -- -- 28
2019-03-24 13:00:00 21.7 13 Sudeste 20 Sudeste 0 -- -- 30
2019-03-24 12:00:00 19.4 10 Sudeste 15 Sudeste 0 -- -- 35
2019-03-24 11:00:00 16.3 5 Sudeste 11 Este 0 -- -- 41
2019-03-24 10:00:00 12.4 5 Sudeste 8 Este 0 -- -- 53
2019-03-24 09:00:00 8.2 3 Sudoeste 9 Norte 0 -- -- 66
2019-03-24 08:00:00 5 5 Noroeste 9 Noroeste 0 -- -- 74
2019-03-24 07:00:00 4.3 4 Noroeste 9 Noroeste 0 -- -- 75
2019-03-24 06:00:00 5.4 4 Oeste 12 Noroeste 0 -- -- 71
2019-03-24 05:00:00 6 5 Noroeste 10 Noroeste 0 -- -- 69
2019-03-24 04:00:00 6.6 6 Noroeste 10 Noroeste 0 -- -- 66
2019-03-24 03:00:00 6.1 8 Noroeste 14 Noroeste 0 -- -- 68
2019-03-24 02:00:00 7.5 8 Noroeste 14 Noroeste 0 -- -- 63
2019-03-24 01:00:00 8.1 11 Noroeste 14 Noroeste 0 -- -- 60
2019-03-24 00:00:00 9 8 Noroeste 12 Noroeste 0 -- -- 57
2019-03-23 23:00:00 10 9 Noroeste 14 Noroeste 0 -- -- 54
2019-03-23 22:00:00 11.5 9 Noroeste 17 Norte 0 -- -- 49
2019-03-23 21:00:00 13.5 13 Norte 17 Norte 0 -- -- 44
2019-03-23 20:00:00 15.6 10 Este 19 Sudeste 0 -- -- 40
2019-03-23 19:00:00 17.8 16 Sudeste 24 Sur 0 -- -- 33
2019-03-23 18:00:00 20.1 15 Sudeste 33 Sur 0 -- -- 29
2019-03-23 17:00:00 21.1 15 Sur 31 Sur 0 -- -- 29
2019-03-23 16:00:00 21.8 19 Sudeste 26 Sudeste 0 -- -- 29
2019-03-23 15:00:00 21.4 18 Sudeste 26 Sudeste 0 -- -- 27
2019-03-23 14:00:00 21.8 15 Sudeste 21 Sudeste 0 -- -- 26
2019-03-23 13:00:00 21 12 Sudeste 20 Este 0 -- -- 28
2019-03-23 12:00:00 18.9 10 Sudeste 15 Sudeste 0 -- -- 37
2019-03-23 11:00:00 15.6 5 Sudeste 11 Sudeste 0 -- -- 45
2019-03-23 10:00:00 11.8 4 Sudeste 8 Sudeste 0 -- -- 56
2019-03-23 09:00:00 7.3 0 Calma 7 Noroeste 0 -- -- 71
2019-03-23 08:00:00 3.7 3 Norte 9 Oeste 0 -- -- 82
2019-03-23 07:00:00 3.8 5 Oeste 11 Noroeste 0 -- -- 80
2019-03-23 06:00:00 4.4 4 Noroeste 10 Noroeste 0 -- -- 77
2019-03-23 05:00:00 5.1 3 Noroeste 12 Norte 0 -- -- 74
2019-03-23 04:00:00 5.3 4 Noroeste 10 Noroeste 0 -- -- 74
2019-03-23 03:00:00 5.8 8 Noroeste 10 Noroeste 0 -- -- 72
2019-03-23 02:00:00 6.5 7 Noroeste 12 Noroeste 0 -- -- 69
2019-03-23 01:00:00 7.1 5 Noroeste 12 Noroeste 0 -- -- 67
2019-03-23 00:00:00 8.2 7 Noroeste 12 Noroeste 0 -- -- 63
2019-03-22 23:00:00 8.6 7 Noroeste 12 Noroeste 0 -- -- 62
2019-03-22 22:00:00 9.7 8 Noroeste 13 Noroeste 0 -- -- 58
2019-03-22 21:00:00 11.6 13 Norte 18 Norte 0 -- -- 52
2019-03-22 20:00:00 14.1 6 Este 14 Sudeste 0 -- -- 46
2019-03-22 19:00:00 16.9 10 Sur 14 Sur 0 -- -- 38
2019-03-22 18:00:00 18.5 12 Sur 21 Sudeste 0 -- -- 35
2019-03-22 17:00:00 19.2 13 Sudeste 21 Sudeste 0 -- -- 35
2019-03-22 16:00:00 19.4 13 Sudeste 26 Sudeste 0 -- -- 33
2019-03-22 15:00:00 19.6 15 Sudeste 21 Sudeste 0 -- -- 33
2019-03-22 14:00:00 18.9 10 Sudeste 21 Sudeste 0 -- -- 33
2019-03-22 13:00:00 18.3 11 Sudeste 15 Sudeste 0 -- -- 35
2019-03-22 12:00:00 17.1 8 Sudeste 13 Este 0 -- -- 33
2019-03-22 11:00:00 13.6 4 Sur 10 Sudeste 0 -- -- 42
2019-03-22 10:00:00 9.5 4 Sur 9 Sur 0 -- -- 53
2019-03-22 09:00:00 5.5 2 Sudoeste 5 Oeste 0 -- -- 63
2019-03-22 08:00:00 2.1 0 Calma 9 Noroeste 0 -- -- 72
2019-03-22 07:00:00 1.3 7 Noroeste 13 Noroeste 0 -- -- 75
2019-03-22 06:00:00 1 7 Noroeste 15 Norte 0 -- -- 75
2019-03-22 05:00:00 1.7 5 Oeste 15 Noroeste 0 -- -- 71
2019-03-22 04:00:00 2.5 4 Noroeste 11 Noroeste 0 -- -- 69
2019-03-22 03:00:00 2.6 3 Norte 12 Norte 0 -- -- 67
2019-03-22 02:00:00 4 5 Noroeste 16 Noroeste 0 -- -- 61
2019-03-22 01:00:00 4.2 9 Noroeste 14 Noroeste 0 -- -- 59
2019-03-22 00:00:00 4.6 6 Oeste 15 Noroeste 0 -- -- 60
2019-03-21 23:00:00 5.3 8 Noroeste 12 Oeste 0 -- -- 57
2019-03-21 22:00:00 6.1 8 Noroeste 13 Noroeste 0 -- -- 55
2019-03-21 21:00:00 8.2 10 Noroeste 13 Norte 0 -- -- 47
2019-03-21 20:00:00 10.7 4 Sudeste 16 Sudeste 0 -- -- 40
2019-03-21 19:00:00 12.9 13 Sudeste 20 Sudeste 0 -- -- 33
2019-03-21 18:00:00 14.9 11 Sur 27 Sudeste 0 -- -- 30
2019-03-21 17:00:00 15.7 17 Sudeste 26 Sudeste 0 -- -- 29
2019-03-21 16:00:00 15.8 20 Sudeste 27 Sudeste 0 -- -- 29
2019-03-21 15:00:00 16.2 16 Sudeste 25 Sudeste 0 -- -- 30
2019-03-21 14:00:00 16.1 14 Sudeste 22 Sudeste 0 -- -- 30
2019-03-21 13:00:00 15.3 9 Sudeste 18 Sudeste 0 -- -- 27
2019-03-21 12:00:00 13.9 14 Sudeste 20 Sudeste 0 -- -- 34
2019-03-21 11:00:00 11.6 8 Sur 15 Sudeste 0 -- -- 33
2019-03-21 10:00:00 7.5 14 Sudeste 19 Sudeste 0 -- -- 51
2019-03-21 09:00:00 3.7 0 Calma 8 Noroeste 0 -- -- 60
2019-03-21 08:00:00 0.5 3 Noroeste 14 Noroeste 0 -- -- 68
2019-03-21 07:00:00 0 6 Noroeste 14 Norte 0 -- -- 66
2019-03-21 06:00:00 0.5 7 Noroeste 10 Noroeste 0 -- -- 66
2019-03-21 05:00:00 -0.2 9 Noroeste 18 Norte 0 -- -- 70
2019-03-21 04:00:00 1 6 Noroeste 12 Norte 0 -- -- 69
2019-03-21 03:00:00 1.4 8 Noroeste 10 Noroeste 0 -- -- 66
2019-03-21 02:00:00 2.5 7 Oeste 11 Noroeste 0 -- -- 62
2019-03-21 01:00:00 3.3 3 Oeste 7 Norte 0 -- -- 62
2019-03-21 00:00:00 4.4 5 Oeste 15 Oeste 0 -- -- 59